createdAt,value
2018-02-24T00:00:45.245Z,58.03
2018-02-24T00:03:12.824Z,63.10
2018-02-24T00:05:40.311Z,67.80
2018-02-24T00:08:07.815Z,60.47
2018-02-24T00:10:35.343Z,62.70
2018-02-24T00:13:03.287Z,70.27
2018-02-24T00:15:30.851Z,57.70
2018-02-24T00:17:58.334Z,59.90
2018-02-24T00:20:25.846Z,56.80
2018-02-24T00:22:53.354Z,70.77
2018-02-24T00:25:20.864Z,63.67
2018-02-24T00:27:48.375Z,52.10
2018-02-24T00:30:15.874Z,64.67
2018-02-24T00:32:43.440Z,71.30
2018-02-24T00:35:10.954Z,59.43
2018-02-24T00:37:38.443Z,63.00
2018-02-24T00:40:05.989Z,67.77
2018-02-24T00:42:33.476Z,62.67
2018-02-24T00:45:00.974Z,65.57
2018-02-24T00:47:28.546Z,57.80
2018-02-24T00:49:56.043Z,56.50
2018-02-24T00:52:23.549Z,65.47
2018-02-24T00:54:51.132Z,57.50
2018-02-24T00:57:18.679Z,60.20
2018-02-24T00:59:46.172Z,58.47
2018-02-24T01:02:13.722Z,57.63
2018-02-24T01:04:41.332Z,62.30
2018-02-24T01:07:08.834Z,56.17
2018-02-24T01:09:36.380Z,56.37
2018-02-24T01:12:03.859Z,53.47
2018-02-24T01:14:31.342Z,52.30
2018-02-24T01:16:58.863Z,54.47
2018-02-24T01:19:26.349Z,59.00
2018-02-24T01:21:54.255Z,53.87
2018-02-24T01:24:21.775Z,57.10
2018-02-24T01:26:49.355Z,60.47
2018-02-24T01:29:16.859Z,59.47
2018-02-24T01:31:44.363Z,51.67
2018-02-24T01:34:11.867Z,57.20
2018-02-24T01:36:39.374Z,56.93
2018-02-24T01:39:06.903Z,52.53
2018-02-24T01:41:34.423Z,57.57
2018-02-24T01:44:01.903Z,57.47
2018-02-24T01:46:29.394Z,60.47
2018-02-24T01:48:56.892Z,60.23
2018-02-24T01:51:24.458Z,57.17
2018-02-24T01:53:51.949Z,57.03
2018-02-24T01:56:19.469Z,64.00
2018-02-24T01:58:46.954Z,57.17
2018-02-24T02:01:14.458Z,60.50
2018-02-24T02:03:41.999Z,60.13
2018-02-24T02:06:09.472Z,54.67
2018-02-24T02:08:36.979Z,53.87
2018-02-24T02:11:04.473Z,52.13
2018-02-24T02:13:31.978Z,52.37
2018-02-24T02:15:59.490Z,60.97
2018-02-24T02:18:27.009Z,56.70
2018-02-24T02:20:54.517Z,61.00
2018-02-24T02:23:22.011Z,57.67
2018-02-24T02:25:49.517Z,54.73
2018-02-24T02:28:17.123Z,57.00
2018-02-24T02:30:44.677Z,62.43
2018-02-24T02:33:12.210Z,52.30
2018-02-24T02:35:39.786Z,59.23
2018-02-24T02:38:07.311Z,57.30
2018-02-24T02:40:34.851Z,57.33
2018-02-24T02:43:02.857Z,61.70
2018-02-24T02:45:30.369Z,62.33
2018-02-24T02:47:58.269Z,63.43
2018-02-24T02:50:25.841Z,58.60
2018-02-24T02:52:53.409Z,55.37
2018-02-24T02:55:20.951Z,54.33
2018-02-24T02:57:48.523Z,62.50
2018-02-24T03:00:16.060Z,60.70
2018-02-24T03:02:43.566Z,73.30
2018-02-24T03:05:11.100Z,61.50
2018-02-24T03:07:38.623Z,60.70
2018-02-24T03:10:06.119Z,61.37
2018-02-24T03:12:33.704Z,59.90
2018-02-24T03:15:01.611Z,54.53
2018-02-24T03:17:29.122Z,54.47
2018-02-24T03:19:56.646Z,61.10
2018-02-24T03:22:24.219Z,60.93
2018-02-24T03:24:51.871Z,62.33
2018-02-24T03:27:19.403Z,55.03
2018-02-24T03:29:46.953Z,66.27
2018-02-24T03:32:14.473Z,54.50
2018-02-24T03:34:42.034Z,64.13
2018-02-24T03:37:09.522Z,54.03
2018-02-24T03:39:36.999Z,54.43
2018-02-24T03:42:04.529Z,64.13
2018-02-24T03:44:32.062Z,60.17
2018-02-24T03:46:59.582Z,59.37
2018-02-24T03:49:27.146Z,61.10
2018-02-24T03:51:54.657Z,51.40
2018-02-24T03:54:22.150Z,61.63
2018-02-24T03:56:49.725Z,54.13
2018-02-24T03:59:17.210Z,60.03
2018-02-24T04:01:44.701Z,56.90
2018-02-24T04:04:12.232Z,57.07
2018-02-24T04:06:40.095Z,57.57
2018-02-24T04:09:08.030Z,56.43
2018-02-24T04:11:35.620Z,61.07
2018-02-24T04:14:03.310Z,56.20
2018-02-24T04:16:30.830Z,64.50
2018-02-24T04:18:58.363Z,60.90
2018-02-24T04:21:25.904Z,55.70
2018-02-24T04:23:53.430Z,65.13
2018-02-24T04:26:21.376Z,51.70
2018-02-24T04:28:48.851Z,62.73
2018-02-24T04:31:16.837Z,51.63
2018-02-24T04:33:44.294Z,61.10
2018-02-24T04:36:11.816Z,56.40
2018-02-24T04:38:39.362Z,57.10
2018-02-24T04:41:06.900Z,58.50
2018-02-24T04:43:34.370Z,59.07
2018-02-24T04:46:01.883Z,60.63
2018-02-24T04:48:29.374Z,59.77
2018-02-24T04:50:56.911Z,64.97
2018-02-24T04:53:24.415Z,61.73
2018-02-24T04:55:51.898Z,56.80
2018-02-24T04:58:19.405Z,60.60
2018-02-24T05:00:46.971Z,53.40
2018-02-24T05:03:14.454Z,62.80
2018-02-24T05:05:42.333Z,54.13
2018-02-24T05:08:09.823Z,62.37
2018-02-24T05:10:37.354Z,51.93
2018-02-24T05:13:04.838Z,59.07
2018-02-24T05:15:35.963Z,57.50
2018-02-24T05:18:03.475Z,59.97
2018-02-24T05:20:30.965Z,48.83
2018-02-24T05:22:58.472Z,68.57
2018-02-24T05:25:25.959Z,54.27
2018-02-24T05:27:53.481Z,62.40
2018-02-24T05:30:21.004Z,68.37
2018-02-24T05:32:48.537Z,59.17
2018-02-24T05:35:16.074Z,52.33
2018-02-24T05:37:43.662Z,58.50
2018-02-24T05:40:11.146Z,57.27
2018-02-24T05:42:38.647Z,50.53
2018-02-24T05:45:06.219Z,54.90
2018-02-24T05:47:34.177Z,61.63
2018-02-24T05:50:02.099Z,57.60
2018-02-24T05:52:30.068Z,54.03
2018-02-24T05:54:57.591Z,56.57
2018-02-24T05:57:25.200Z,59.70
2018-02-24T05:59:52.795Z,56.80
2018-02-24T06:02:20.351Z,60.63
2018-02-24T06:04:47.937Z,58.67
2018-02-24T06:07:15.526Z,52.50
2018-02-24T06:09:43.046Z,64.57
2018-02-24T06:12:10.566Z,61.10
2018-02-24T06:14:38.136Z,64.80
2018-02-24T06:17:05.755Z,55.83
2018-02-24T06:19:33.324Z,52.23
2018-02-24T06:22:00.938Z,59.83
2018-02-24T06:24:28.446Z,65.97
2018-02-24T06:26:56.002Z,60.43
2018-02-24T06:29:23.511Z,56.33
2018-02-24T06:31:51.073Z,54.57
2018-02-24T06:34:18.545Z,64.63
2018-02-24T06:36:46.064Z,59.83
2018-02-24T06:39:13.638Z,57.00
2018-02-24T06:41:41.550Z,56.57
2018-02-24T06:44:09.172Z,62.17
2018-02-24T06:46:36.699Z,62.87
2018-02-24T06:49:04.676Z,63.40
2018-02-24T06:51:32.626Z,64.83
2018-02-24T06:54:00.222Z,59.00
2018-02-24T06:56:27.743Z,66.40
2018-02-24T06:58:55.348Z,60.93
2018-02-24T07:01:22.937Z,58.30
2018-02-24T07:03:50.522Z,53.43
2018-02-24T07:06:18.139Z,57.77
2018-02-24T07:08:45.631Z,54.70
2018-02-24T07:11:13.143Z,65.37
2018-02-24T07:13:40.676Z,52.83
2018-02-24T07:16:08.613Z,61.97
2018-02-24T07:18:36.201Z,73.47
2018-02-24T07:21:04.182Z,55.83
2018-02-24T07:23:31.783Z,57.20
2018-02-24T07:25:59.405Z,71.83
2018-02-24T07:28:27.417Z,60.03
2018-02-24T07:30:54.902Z,54.30
2018-02-24T07:33:22.778Z,66.30
2018-02-24T07:35:50.690Z,58.37
2018-02-24T07:38:18.219Z,57.33
2018-02-24T07:40:45.732Z,57.50
2018-02-24T07:43:13.294Z,66.77
2018-02-24T07:45:40.812Z,60.97
2018-02-24T07:48:08.338Z,58.03
2018-02-24T07:50:36.241Z,68.23
2018-02-24T07:53:03.797Z,60.10
2018-02-24T07:55:31.359Z,54.67
2018-02-24T07:57:59.460Z,65.50
2018-02-24T08:00:26.950Z,52.07
2018-02-24T08:02:54.884Z,54.23
2018-02-24T08:05:22.848Z,62.33
2018-02-24T08:07:50.389Z,57.03
2018-02-24T08:10:17.936Z,62.43
2018-02-24T08:12:45.568Z,57.40
2018-02-24T08:15:13.212Z,60.50
2018-02-24T08:17:41.189Z,51.30
2018-02-24T08:20:08.740Z,67.17
2018-02-24T08:22:36.267Z,61.63
2018-02-24T08:25:03.811Z,58.13
2018-02-24T08:27:31.325Z,66.53
2018-02-24T08:29:58.849Z,54.20
2018-02-24T08:32:26.437Z,60.07
2018-02-24T08:34:54.011Z,59.03
2018-02-24T08:37:21.588Z,62.53
2018-02-24T08:39:49.110Z,59.27
2018-02-24T08:42:18.468Z,65.90
2018-02-24T08:44:46.983Z,61.53
2018-02-24T08:47:14.577Z,68.33
2018-02-24T08:49:42.158Z,58.17
2018-02-24T08:52:09.666Z,56.60
2018-02-24T08:54:37.246Z,57.50
2018-02-24T08:57:04.764Z,70.37
2018-02-24T08:59:32.752Z,64.50
2018-02-24T09:02:00.364Z,61.47
2018-02-24T09:04:27.959Z,57.70
2018-02-24T09:06:55.597Z,59.50
2018-02-24T09:09:23.222Z,60.47
2018-02-24T09:11:50.804Z,63.13
2018-02-24T09:14:18.306Z,65.80
2018-02-24T09:16:45.928Z,57.50
2018-02-24T09:19:13.548Z,51.97
2018-02-24T09:21:41.071Z,64.57
2018-02-24T09:24:09.067Z,67.73
2018-02-24T09:26:36.726Z,67.83
2018-02-24T09:29:04.355Z,51.83
2018-02-24T09:31:32.327Z,55.30
2018-02-24T09:33:59.868Z,70.97
2018-02-24T09:36:27.491Z,52.97
2018-02-24T09:38:56.011Z,54.27
2018-02-24T09:41:23.527Z,54.30
2018-02-24T09:43:51.081Z,59.23
2018-02-24T09:46:18.882Z,52.93
2018-02-24T09:48:46.469Z,54.63
2018-02-24T09:51:14.394Z,57.60
2018-02-24T09:53:42.012Z,62.40
2018-02-24T09:56:09.636Z,57.67
2018-02-24T09:58:37.167Z,58.73
2018-02-24T10:01:04.760Z,63.40
2018-02-24T10:03:32.410Z,60.10
2018-02-24T10:06:00.002Z,63.03
2018-02-24T10:08:27.638Z,57.17
2018-02-24T10:10:55.227Z,59.03
2018-02-24T10:13:26.463Z,64.03
2018-02-24T10:15:54.091Z,61.60
2018-02-24T10:18:21.667Z,56.80
2018-02-24T10:20:49.313Z,55.77
2018-02-24T10:23:16.903Z,59.47
2018-02-24T10:25:44.497Z,65.17
2018-02-24T10:28:12.817Z,62.83
2018-02-24T10:30:40.392Z,67.57
2018-02-24T10:33:07.971Z,58.57
2018-02-24T10:35:35.579Z,54.93
2018-02-24T10:38:03.185Z,70.33
2018-02-24T10:40:30.760Z,56.50
2018-02-24T10:42:58.379Z,63.97
2018-02-24T10:45:26.374Z,70.03
2018-02-24T10:47:54.444Z,62.83
2018-02-24T10:50:22.019Z,60.30
2018-02-24T10:52:49.653Z,61.07
2018-02-24T10:55:17.278Z,71.13
2018-02-24T10:57:45.554Z,53.40
2018-02-24T11:00:13.296Z,57.17
2018-02-24T11:02:41.094Z,67.07
2018-02-24T11:05:08.745Z,59.13
2018-02-24T11:07:36.758Z,59.67
2018-02-24T11:10:06.819Z,58.87
2018-02-24T11:12:34.462Z,62.73
2018-02-24T11:15:02.141Z,53.47
2018-02-24T11:17:29.719Z,62.77
2018-02-24T11:19:57.286Z,66.37
2018-02-24T11:22:24.918Z,60.77
2018-02-24T11:24:52.540Z,61.13
2018-02-24T11:27:20.105Z,66.70
2018-02-24T11:29:47.734Z,60.47
2018-02-24T11:32:15.286Z,59.00
2018-02-24T11:34:42.905Z,63.73
2018-02-24T11:37:10.505Z,57.27
2018-02-24T11:39:40.230Z,52.27
2018-02-24T11:42:07.775Z,69.10
2018-02-24T11:44:35.310Z,62.47
2018-02-24T11:47:02.895Z,58.53
2018-02-24T11:49:30.522Z,58.07
2018-02-24T11:51:58.096Z,58.37
2018-02-24T11:54:25.659Z,64.47
2018-02-24T11:56:53.363Z,53.13
2018-02-24T11:59:21.764Z,67.20
2018-02-24T12:01:49.385Z,64.03
2018-02-24T12:04:17.024Z,58.27
2018-02-24T12:06:44.568Z,64.70
2018-02-24T12:09:12.526Z,65.97
2018-02-24T12:11:41.203Z,60.00
2018-02-24T12:14:08.806Z,63.00
2018-02-24T12:16:36.407Z,59.17
2018-02-24T12:19:04.035Z,59.63
2018-02-24T12:21:31.682Z,67.00
2018-02-24T12:23:59.255Z,60.43
2018-02-24T12:26:26.751Z,57.13
2018-02-24T12:28:54.391Z,54.67
2018-02-24T12:31:22.051Z,57.00
2018-02-24T12:33:49.626Z,61.47
2018-02-24T12:36:17.204Z,55.67
2018-02-24T12:38:44.798Z,61.93
2018-02-24T12:41:12.391Z,56.70
2018-02-24T12:43:39.979Z,54.80
2018-02-24T12:46:07.582Z,58.63
2018-02-24T12:48:35.099Z,56.73
2018-02-24T12:51:03.639Z,49.03
2018-02-24T12:53:31.226Z,56.20
2018-02-24T12:55:58.850Z,53.20
2018-02-24T12:58:26.477Z,50.60
2018-02-24T13:00:54.394Z,51.33
2018-02-24T13:03:21.970Z,53.33
2018-02-24T13:05:49.628Z,56.33
2018-02-24T13:08:17.304Z,55.47
2018-02-24T13:10:44.913Z,57.57
2018-02-24T13:13:12.598Z,52.40
2018-02-24T13:15:40.199Z,52.37
2018-02-24T13:18:08.654Z,59.60
2018-02-24T13:20:36.472Z,67.67
2018-02-24T13:23:04.047Z,49.83
2018-02-24T13:25:31.577Z,56.20
2018-02-24T13:27:59.156Z,57.70
2018-02-24T13:30:26.699Z,58.30
2018-02-24T13:32:54.263Z,61.60
2018-02-24T13:35:21.783Z,62.77
2018-02-24T13:37:49.779Z,53.90
2018-02-24T13:40:17.387Z,59.53
2018-02-24T13:42:45.041Z,67.57
2018-02-24T13:45:12.658Z,59.63
2018-02-24T13:47:40.248Z,58.07
2018-02-24T13:50:07.783Z,57.77
2018-02-24T13:52:35.384Z,59.00
2018-02-24T13:55:02.850Z,64.40
2018-02-24T13:57:30.472Z,66.57
2018-02-24T13:59:58.177Z,56.33
2018-02-24T14:02:25.750Z,65.77
2018-02-24T14:04:53.344Z,66.60
2018-02-24T14:07:21.042Z,58.50
2018-02-24T14:09:48.583Z,65.40
2018-02-24T14:12:16.163Z,58.87
2018-02-24T14:14:43.700Z,61.37
2018-02-24T14:17:11.900Z,50.77
2018-02-24T14:19:39.438Z,60.13
2018-02-24T14:22:07.049Z,60.97
2018-02-24T14:24:34.646Z,54.63
2018-02-24T14:27:02.299Z,58.23
2018-02-24T14:29:29.983Z,52.60
2018-02-24T14:31:57.603Z,63.30
2018-02-24T14:34:25.193Z,60.20
2018-02-24T14:36:52.860Z,56.57
2018-02-24T14:39:20.366Z,56.80
2018-02-24T14:41:47.886Z,62.53
2018-02-24T14:44:15.443Z,67.10
2018-02-24T14:46:43.049Z,60.97
2018-02-24T14:49:11.275Z,56.10
2018-02-24T14:51:38.843Z,57.83
2018-02-24T14:54:06.399Z,53.93
2018-02-24T14:56:34.020Z,58.33
2018-02-24T14:59:08.196Z,50.40
2018-02-24T15:01:36.197Z,57.43
2018-02-24T15:04:03.813Z,61.63
2018-02-24T15:06:31.805Z,59.50
2018-02-24T15:08:59.432Z,55.03
2018-02-24T15:11:27.056Z,56.27
2018-02-24T15:13:55.584Z,50.23
2018-02-24T15:16:23.172Z,50.33
2018-02-24T15:18:50.835Z,48.13
2018-02-24T15:21:18.468Z,56.37
2018-02-24T15:23:46.448Z,52.67
2018-02-24T15:26:14.998Z,50.07
2018-02-24T15:28:42.502Z,54.63
2018-02-24T15:31:10.038Z,44.97
2018-02-24T15:33:37.612Z,48.53
2018-02-24T15:36:05.180Z,56.43
2018-02-24T15:38:32.699Z,48.23
2018-02-24T15:41:00.760Z,56.27
2018-02-24T15:43:28.307Z,45.20
2018-02-24T15:45:55.812Z,47.90
2018-02-24T15:48:23.392Z,48.00
2018-02-24T15:50:51.004Z,44.07
2018-02-24T15:53:18.607Z,50.17
2018-02-24T15:55:46.200Z,49.73
2018-02-24T15:58:13.761Z,43.57
2018-02-24T16:00:41.383Z,49.53
2018-02-24T16:03:09.463Z,50.43
2018-02-24T16:05:37.063Z,45.60
2018-02-24T16:08:04.684Z,48.50
2018-02-24T16:10:32.233Z,47.17
2018-02-24T16:12:59.829Z,42.87
2018-02-24T16:15:27.428Z,37.20
2018-02-24T16:17:54.931Z,46.30
2018-02-24T16:20:22.537Z,39.67
2018-02-24T16:22:50.178Z,42.27
2018-02-24T16:25:17.796Z,36.77
2018-02-24T16:27:45.775Z,32.87
2018-02-24T16:30:13.425Z,44.87
2018-02-24T16:32:41.013Z,39.43
2018-02-24T16:35:08.659Z,47.40
2018-02-24T16:37:36.315Z,39.30
2018-02-24T16:40:04.251Z,41.07
2018-02-24T16:42:31.886Z,36.83
2018-02-24T16:44:59.602Z,39.93
2018-02-24T16:47:27.181Z,41.27
2018-02-24T16:49:55.802Z,44.03
2018-02-24T16:52:23.387Z,38.43
2018-02-24T16:54:50.982Z,37.93
2018-02-24T16:57:18.595Z,42.20
2018-02-24T16:59:46.173Z,37.57
2018-02-24T17:02:13.780Z,34.53
2018-02-24T17:04:41.768Z,41.87
2018-02-24T17:07:09.377Z,36.00
2018-02-24T17:09:36.972Z,35.80
2018-02-24T17:12:05.000Z,42.53
2018-02-24T17:14:32.578Z,34.40
2018-02-24T17:17:00.207Z,47.40
2018-02-24T17:19:27.808Z,26.97
2018-02-24T17:21:55.384Z,30.90
2018-02-24T17:24:22.969Z,33.13
2018-02-24T17:26:50.567Z,28.20
2018-02-24T17:29:18.220Z,34.70
2018-02-24T17:31:45.827Z,29.50
2018-02-24T17:34:13.382Z,27.50
2018-02-24T17:36:41.037Z,32.17
2018-02-24T17:39:08.821Z,31.87
2018-02-24T17:41:36.499Z,27.73
2018-02-24T17:44:04.118Z,26.20
2018-02-24T17:46:31.741Z,31.93
2018-02-24T17:48:59.341Z,27.43
2018-02-24T17:51:27.019Z,32.93
2018-02-24T17:53:54.651Z,27.17
2018-02-24T17:56:22.260Z,30.00
2018-02-24T17:58:50.761Z,25.90
2018-02-24T18:01:18.343Z,29.77
2018-02-24T18:03:45.932Z,25.67
2018-02-24T18:06:13.480Z,26.10
2018-02-24T18:08:41.086Z,23.33
2018-02-24T18:11:08.613Z,25.83
2018-02-24T18:13:36.231Z,22.43
2018-02-24T18:16:03.825Z,29.03
2018-02-24T18:18:31.428Z,23.07
2018-02-24T18:20:59.063Z,31.43
2018-02-24T18:23:26.683Z,25.80
2018-02-24T18:25:54.699Z,26.17
2018-02-24T18:28:22.337Z,22.97
2018-02-24T18:30:49.908Z,24.80
2018-02-24T18:33:17.519Z,23.20
2018-02-24T18:35:45.095Z,24.07
2018-02-24T18:38:12.723Z,25.03
2018-02-24T18:40:40.385Z,23.80
2018-02-24T18:43:07.984Z,26.23
2018-02-24T18:45:35.552Z,26.20
2018-02-24T18:48:03.246Z,28.27
2018-02-24T18:50:30.822Z,25.33
2018-02-24T18:52:58.417Z,20.43
2018-02-24T18:55:26.049Z,21.30
2018-02-24T18:57:53.682Z,18.23
2018-02-24T19:00:21.305Z,24.03
2018-02-24T19:02:49.068Z,24.43
2018-02-24T19:05:16.727Z,23.27
2018-02-24T19:07:44.755Z,20.53
2018-02-24T19:10:12.465Z,25.77
2018-02-24T19:12:40.075Z,35.30
2018-02-24T19:15:07.791Z,27.00
2018-02-24T19:17:35.352Z,25.30
2018-02-24T19:20:03.039Z,29.53
2018-02-24T19:22:30.631Z,24.50
2018-02-24T19:24:58.228Z,28.00
2018-02-24T19:27:25.828Z,22.90
2018-02-24T19:29:53.475Z,25.43
2018-02-24T19:32:21.014Z,24.47
2018-02-24T19:34:48.774Z,24.47
2018-02-24T19:37:16.425Z,22.73
2018-02-24T19:39:44.164Z,22.70
2018-02-24T19:42:11.753Z,26.40
2018-02-24T19:44:39.307Z,25.00
2018-02-24T19:47:07.007Z,25.77
2018-02-24T19:49:34.620Z,26.53
2018-02-24T19:52:02.385Z,25.83
2018-02-24T19:54:29.964Z,24.73
2018-02-24T19:56:57.574Z,23.90
2018-02-24T19:59:26.706Z,26.83
2018-02-24T20:01:54.299Z,19.63
2018-02-24T20:04:21.918Z,28.13
2018-02-24T20:06:49.485Z,22.57
2018-02-24T20:09:17.170Z,20.60
2018-02-24T20:11:44.803Z,23.93
2018-02-24T20:14:12.595Z,25.73
2018-02-24T20:16:40.221Z,21.73
2018-02-24T20:19:07.792Z,27.83
2018-02-24T20:21:35.340Z,27.63
2018-02-24T20:24:03.084Z,23.80
2018-02-24T20:26:30.693Z,27.63
2018-02-24T20:28:58.204Z,24.23
2018-02-24T20:31:25.807Z,25.63
2018-02-24T20:33:53.488Z,21.20
2018-02-24T20:36:21.109Z,23.33
2018-02-24T20:38:48.860Z,22.13
2018-02-24T20:41:16.450Z,22.17
2018-02-24T20:43:44.072Z,26.80
2018-02-24T20:46:11.661Z,23.43
2018-02-24T20:48:39.221Z,31.43
2018-02-24T20:51:06.795Z,24.17
2018-02-24T20:53:34.528Z,20.17
2018-02-24T20:56:02.286Z,21.40
2018-02-24T20:58:29.893Z,24.43
2018-02-24T21:00:57.543Z,28.20
2018-02-24T21:03:25.074Z,22.80
2018-02-24T21:05:52.672Z,20.23
2018-02-24T21:08:20.290Z,23.87
2018-02-24T21:10:47.889Z,23.23
2018-02-24T21:13:15.471Z,22.67
2018-02-24T21:15:43.714Z,24.33
2018-02-24T21:18:11.325Z,18.80
2018-02-24T21:20:38.886Z,23.80
2018-02-24T21:23:06.507Z,23.13
2018-02-24T21:25:34.535Z,21.60
2018-02-24T21:28:02.089Z,28.20
2018-02-24T21:30:29.781Z,19.30
2018-02-24T21:32:57.398Z,19.17
2018-02-24T21:35:25.005Z,22.80
2018-02-24T21:37:52.549Z,25.17
2018-02-24T21:40:20.112Z,22.63
2018-02-24T21:42:47.760Z,23.20
2018-02-24T21:45:15.307Z,20.47
2018-02-24T21:47:42.914Z,24.63
2018-02-24T21:50:10.573Z,23.73
2018-02-24T21:52:38.115Z,23.43
2018-02-24T21:55:05.656Z,26.77
2018-02-24T21:57:33.275Z,22.13
2018-02-24T22:00:01.168Z,20.77
2018-02-24T22:02:29.522Z,25.00
2018-02-24T22:04:57.217Z,21.07
2018-02-24T22:07:25.647Z,23.07
2018-02-24T22:09:54.124Z,29.80
2018-02-24T22:12:22.101Z,26.70
2018-02-24T22:14:49.690Z,31.63
2018-02-24T22:17:18.138Z,28.10
2018-02-24T22:19:46.106Z,28.53
2018-02-24T22:22:13.753Z,29.23
2018-02-24T22:24:43.003Z,24.47
2018-02-24T22:27:10.599Z,31.27
2018-02-24T22:29:38.289Z,22.30
2018-02-24T22:32:06.216Z,24.33
2018-02-24T22:34:33.833Z,24.20
2018-02-24T22:37:01.487Z,25.17
2018-02-24T22:39:29.128Z,28.10
2018-02-24T22:41:59.232Z,23.97
2018-02-24T22:44:26.855Z,29.23
2018-02-24T22:46:54.466Z,33.53
2018-02-24T22:49:22.484Z,30.47
2018-02-24T22:51:50.072Z,29.77
2018-02-24T22:54:17.684Z,28.27
2018-02-24T22:56:45.300Z,27.93
2018-02-24T22:59:12.904Z,29.77
2018-02-24T23:01:40.533Z,30.50
2018-02-24T23:04:08.576Z,31.53
2018-02-24T23:06:36.203Z,25.00
2018-02-24T23:09:03.786Z,26.67
2018-02-24T23:14:24.872Z,29.90
2018-02-24T23:16:53.418Z,34.77
2018-02-24T23:19:27.784Z,28.90
2018-02-24T23:21:57.106Z,37.53
2018-02-24T23:24:25.008Z,29.47
2018-02-24T23:26:57.931Z,25.50
2018-02-24T23:29:26.050Z,34.33
2018-02-24T23:31:53.723Z,30.70
2018-02-24T23:34:24.073Z,32.17
2018-02-24T23:36:54.148Z,33.30
2018-02-24T23:39:23.740Z,30.33
2018-02-24T23:41:51.515Z,36.37
2018-02-24T23:44:20.264Z,32.90
2018-02-24T23:46:50.253Z,32.03
2018-02-24T23:49:18.036Z,30.67
2018-02-24T23:54:24.427Z,24.50
2018-02-24T23:56:53.224Z,32.10
2018-02-24T23:59:23.191Z,30.07
